sensor_id;sensor_type;location;lat;lon;timestamp;temperature;humidity
49511;DHT22;35413;48.776;9.204;2022-11-03T00:01:54;21.60;61.10
49511;DHT22;35413;48.776;9.204;2022-11-03T00:04:21;21.60;61.10
49511;DHT22;35413;48.776;9.204;2022-11-03T00:06:52;21.50;61.00
49511;DHT22;35413;48.776;9.204;2022-11-03T00:09:19;21.50;60.90
49511;DHT22;35413;48.776;9.204;2022-11-03T00:11:47;21.50;60.90
49511;DHT22;35413;48.776;9.204;2022-11-03T00:14:13;21.50;60.90
49511;DHT22;35413;48.776;9.204;2022-11-03T00:16:41;21.50;60.90
49511;DHT22;35413;48.776;9.204;2022-11-03T00:19:08;21.50;60.90
49511;DHT22;35413;48.776;9.204;2022-11-03T00:21:34;21.50;60.80
49511;DHT22;35413;48.776;9.204;2022-11-03T00:24:00;21.60;60.90
49511;DHT22;35413;48.776;9.204;2022-11-03T00:26:31;21.50;60.80
49511;DHT22;35413;48.776;9.204;2022-11-03T00:29:05;21.50;60.80
49511;DHT22;35413;48.776;9.204;2022-11-03T00:31:34;21.50;60.80
49511;DHT22;35413;48.776;9.204;2022-11-03T00:34:01;21.60;61.30
49511;DHT22;35413;48.776;9.204;2022-11-03T00:36:37;21.60;60.70
49511;DHT22;35413;48.776;9.204;2022-11-03T00:39:04;21.60;60.70
49511;DHT22;35413;48.776;9.204;2022-11-03T00:41:30;21.70;60.80
49511;DHT22;35413;48.776;9.204;2022-11-03T00:43:56;21.60;60.70
49511;DHT22;35413;48.776;9.204;2022-11-03T00:46:22;21.60;60.70
49511;DHT22;35413;48.776;9.204;2022-11-03T00:48:49;21.60;60.70
49511;DHT22;35413;48.776;9.204;2022-11-03T00:51:20;21.60;60.70
49511;DHT22;35413;48.776;9.204;2022-11-03T00:56:16;21.60;60.70
49511;DHT22;35413;48.776;9.204;2022-11-03T00:58:42;21.70;60.70
49511;DHT22;35413;48.776;9.204;2022-11-03T01:01:14;21.70;60.90
49511;DHT22;35413;48.776;9.204;2022-11-03T01:03:42;21.70;60.90
49511;DHT22;35413;48.776;9.204;2022-11-03T01:06:33;21.60;60.90
49511;DHT22;35413;48.776;9.204;2022-11-03T01:09:25;21.60;60.80
49511;DHT22;35413;48.776;9.204;2022-11-03T01:14:24;21.60;60.70
49511;DHT22;35413;48.776;9.204;2022-11-03T01:16:50;21.60;60.70
49511;DHT22;35413;48.776;9.204;2022-11-03T01:19:16;21.60;60.60
49511;DHT22;35413;48.776;9.204;2022-11-03T01:21:42;21.60;60.60
49511;DHT22;35413;48.776;9.204;2022-11-03T01:24:08;21.60;60.50
49511;DHT22;35413;48.776;9.204;2022-11-03T01:26:33;21.60;60.50
49511;DHT22;35413;48.776;9.204;2022-11-03T01:28:59;21.60;60.40
49511;DHT22;35413;48.776;9.204;2022-11-03T01:31:26;21.60;60.40
49511;DHT22;35413;48.776;9.204;2022-11-03T01:33:53;21.60;60.30
49511;DHT22;35413;48.776;9.204;2022-11-03T01:36:20;21.60;60.30
49511;DHT22;35413;48.776;9.204;2022-11-03T01:38:45;21.60;60.80
49511;DHT22;35413;48.776;9.204;2022-11-03T01:41:19;21.60;60.20
49511;DHT22;35413;48.776;9.204;2022-11-03T01:43:49;21.60;60.10
49511;DHT22;35413;48.776;9.204;2022-11-03T01:46:25;21.60;60.10
49511;DHT22;35413;48.776;9.204;2022-11-03T01:49:04;21.60;60.10
49511;DHT22;35413;48.776;9.204;2022-11-03T01:51:32;21.60;60.00
49511;DHT22;35413;48.776;9.204;2022-11-03T01:54:02;21.50;59.90
49511;DHT22;35413;48.776;9.204;2022-11-03T01:56:31;21.50;59.90
49511;DHT22;35413;48.776;9.204;2022-11-03T01:58:58;21.50;59.80
49511;DHT22;35413;48.776;9.204;2022-11-03T02:01:25;21.50;59.70
49511;DHT22;35413;48.776;9.204;2022-11-03T02:03:53;21.60;59.80
49511;DHT22;35413;48.776;9.204;2022-11-03T02:06:23;21.50;59.70
49511;DHT22;35413;48.776;9.204;2022-11-03T02:09:03;21.50;59.70
49511;DHT22;35413;48.776;9.204;2022-11-03T02:11:31;21.50;59.60
49511;DHT22;35413;48.776;9.204;2022-11-03T02:14:16;21.50;59.60
49511;DHT22;35413;48.776;9.204;2022-11-03T02:16:46;21.50;59.50
49511;DHT22;35413;48.776;9.204;2022-11-03T02:19:26;21.60;59.60
49511;DHT22;35413;48.776;9.204;2022-11-03T02:24:48;21.50;59.40
49511;DHT22;35413;48.776;9.204;2022-11-03T02:27:15;21.50;59.40
49511;DHT22;35413;48.776;9.204;2022-11-03T02:29:40;21.60;59.40
49511;DHT22;35413;48.776;9.204;2022-11-03T02:32:13;21.50;59.30
49511;DHT22;35413;48.776;9.204;2022-11-03T02:37:34;21.60;59.30
49511;DHT22;35413;48.776;9.204;2022-11-03T02:40:47;21.50;59.20
49511;DHT22;35413;48.776;9.204;2022-11-03T02:43:05;21.60;59.20
49511;DHT22;35413;48.776;9.204;2022-11-03T02:45:33;21.60;59.10
49511;DHT22;35413;48.776;9.204;2022-11-03T02:48:00;21.60;59.10
49511;DHT22;35413;48.776;9.204;2022-11-03T02:50:29;21.50;59.00
49511;DHT22;35413;48.776;9.204;2022-11-03T02:52:56;21.50;59.00
49511;DHT22;35413;48.776;9.204;2022-11-03T02:58:27;21.50;58.90
49511;DHT22;35413;48.776;9.204;2022-11-03T03:03:42;21.50;58.80
49511;DHT22;35413;48.776;9.204;2022-11-03T03:06:13;21.50;58.80
49511;DHT22;35413;48.776;9.204;2022-11-03T03:08:44;21.50;58.70
49511;DHT22;35413;48.776;9.204;2022-11-03T03:11:12;21.50;58.70
49511;DHT22;35413;48.776;9.204;2022-11-03T03:13:40;21.50;58.80
49511;DHT22;35413;48.776;9.204;2022-11-03T03:16:24;21.50;58.70
49511;DHT22;35413;48.776;9.204;2022-11-03T03:19:04;21.50;58.70
49511;DHT22;35413;48.776;9.204;2022-11-03T03:21:36;21.50;58.60
49511;DHT22;35413;48.776;9.204;2022-11-03T03:24:18;21.50;58.60
49511;DHT22;35413;48.776;9.204;2022-11-03T03:26:47;21.50;58.60
49511;DHT22;35413;48.776;9.204;2022-11-03T03:29:26;21.50;58.60
49511;DHT22;35413;48.776;9.204;2022-11-03T03:31:56;21.50;58.60
49511;DHT22;35413;48.776;9.204;2022-11-03T03:34:24;21.50;58.50
49511;DHT22;35413;48.776;9.204;2022-11-03T03:36:52;21.50;58.50
49511;DHT22;35413;48.776;9.204;2022-11-03T03:39:21;21.50;58.50
49511;DHT22;35413;48.776;9.204;2022-11-03T03:41:48;21.50;58.40
49511;DHT22;35413;48.776;9.204;2022-11-03T03:44:14;21.50;58.50
49511;DHT22;35413;48.776;9.204;2022-11-03T03:46:44;21.50;59.00
49511;DHT22;35413;48.776;9.204;2022-11-03T03:49:12;21.50;58.40
49511;DHT22;35413;48.776;9.204;2022-11-03T03:51:38;21.50;58.30
49511;DHT22;35413;48.776;9.204;2022-11-03T03:54:03;21.50;58.30
49511;DHT22;35413;48.776;9.204;2022-11-03T03:56:33;21.50;58.30
49511;DHT22;35413;48.776;9.204;2022-11-03T03:59:01;21.50;58.20
49511;DHT22;35413;48.776;9.204;2022-11-03T04:01:26;21.50;58.20
49511;DHT22;35413;48.776;9.204;2022-11-03T04:03:52;21.40;58.20
49511;DHT22;35413;48.776;9.204;2022-11-03T04:06:18;21.50;58.10
49511;DHT22;35413;48.776;9.204;2022-11-03T04:08:43;21.50;58.20
49511;DHT22;35413;48.776;9.204;2022-11-03T04:11:09;21.50;58.20
49511;DHT22;35413;48.776;9.204;2022-11-03T04:13:53;21.40;58.10
49511;DHT22;35413;48.776;9.204;2022-11-03T04:16:54;21.50;58.10
49511;DHT22;35413;48.776;9.204;2022-11-03T04:19:38;21.50;58.00
49511;DHT22;35413;48.776;9.204;2022-11-03T04:22:25;21.50;58.10
49511;DHT22;35413;48.776;9.204;2022-11-03T04:24:51;21.50;58.20
49511;DHT22;35413;48.776;9.204;2022-11-03T04:27:33;21.50;58.10
49511;DHT22;35413;48.776;9.204;2022-11-03T04:30:15;21.40;58.00
49511;DHT22;35413;48.776;9.204;2022-11-03T04:32:45;21.40;58.00
49511;DHT22;35413;48.776;9.204;2022-11-03T04:35:22;21.40;57.90
49511;DHT22;35413;48.776;9.204;2022-11-03T04:37:53;21.40;58.00
49511;DHT22;35413;48.776;9.204;2022-11-03T04:40:19;21.40;57.90
49511;DHT22;35413;48.776;9.204;2022-11-03T04:42:45;21.40;57.90
49511;DHT22;35413;48.776;9.204;2022-11-03T04:45:23;21.50;58.00
49511;DHT22;35413;48.776;9.204;2022-11-03T04:47:51;21.40;57.80
49511;DHT22;35413;48.776;9.204;2022-11-03T04:50:19;21.50;57.90
49511;DHT22;35413;48.776;9.204;2022-11-03T04:53:08;21.40;57.80
49511;DHT22;35413;48.776;9.204;2022-11-03T04:55:31;21.40;57.70
49511;DHT22;35413;48.776;9.204;2022-11-03T04:57:59;21.50;57.80
49511;DHT22;35413;48.776;9.204;2022-11-03T05:00:26;21.40;57.70
49511;DHT22;35413;48.776;9.204;2022-11-03T05:02:52;21.50;57.70
49511;DHT22;35413;48.776;9.204;2022-11-03T05:05:20;21.50;57.70
49511;DHT22;35413;48.776;9.204;2022-11-03T05:07:48;21.40;57.70
49511;DHT22;35413;48.776;9.204;2022-11-03T05:10:20;21.40;57.60
49511;DHT22;35413;48.776;9.204;2022-11-03T05:12:48;21.50;57.60
49511;DHT22;35413;48.776;9.204;2022-11-03T05:15:41;21.40;57.60
49511;DHT22;35413;48.776;9.204;2022-11-03T05:20:49;21.40;57.50
49511;DHT22;35413;48.776;9.204;2022-11-03T05:23:17;21.40;57.50
49511;DHT22;35413;48.776;9.204;2022-11-03T05:25:45;21.40;57.50
49511;DHT22;35413;48.776;9.204;2022-11-03T05:28:29;21.40;57.50
49511;DHT22;35413;48.776;9.204;2022-11-03T05:30:56;21.50;57.40
49511;DHT22;35413;48.776;9.204;2022-11-03T05:33:39;21.40;57.40
49511;DHT22;35413;48.776;9.204;2022-11-03T05:36:11;21.40;57.30
49511;DHT22;35413;48.776;9.204;2022-11-03T05:38:38;21.40;57.30
49511;DHT22;35413;48.776;9.204;2022-11-03T05:41:33;21.40;57.50
49511;DHT22;35413;48.776;9.204;2022-11-03T05:46:46;21.40;57.30
49511;DHT22;35413;48.776;9.204;2022-11-03T05:49:12;21.40;57.30
49511;DHT22;35413;48.776;9.204;2022-11-03T05:51:39;21.40;57.30
49511;DHT22;35413;48.776;9.204;2022-11-03T05:54:14;21.40;57.20
49511;DHT22;35413;48.776;9.204;2022-11-03T05:56:41;21.40;57.20
49511;DHT22;35413;48.776;9.204;2022-11-03T05:59:09;21.40;57.30
49511;DHT22;35413;48.776;9.204;2022-11-03T06:01:37;21.40;57.20
49511;DHT22;35413;48.776;9.204;2022-11-03T06:04:27;21.40;57.20
49511;DHT22;35413;48.776;9.204;2022-11-03T06:06:58;21.40;57.10
49511;DHT22;35413;48.776;9.204;2022-11-03T06:09:25;21.40;57.10
49511;DHT22;35413;48.776;9.204;2022-11-03T06:11:53;21.40;57.10
49511;DHT22;35413;48.776;9.204;2022-11-03T06:14:21;21.40;57.10
49511;DHT22;35413;48.776;9.204;2022-11-03T06:19:31;21.40;57.00
49511;DHT22;35413;48.776;9.204;2022-11-03T06:22:13;21.40;57.10
49511;DHT22;35413;48.776;9.204;2022-11-03T06:24:40;21.40;57.00
49511;DHT22;35413;48.776;9.204;2022-11-03T06:27:11;21.40;57.00
49511;DHT22;35413;48.776;9.204;2022-11-03T06:29:38;21.40;57.00
49511;DHT22;35413;48.776;9.204;2022-11-03T06:32:03;21.40;57.00
49511;DHT22;35413;48.776;9.204;2022-11-03T06:34:53;21.40;56.90
49511;DHT22;35413;48.776;9.204;2022-11-03T06:37:23;21.40;56.90
49511;DHT22;35413;48.776;9.204;2022-11-03T06:39:52;21.40;56.90
49511;DHT22;35413;48.776;9.204;2022-11-03T06:42:22;21.40;56.90
49511;DHT22;35413;48.776;9.204;2022-11-03T06:44:49;21.40;56.90
49511;DHT22;35413;48.776;9.204;2022-11-03T06:47:25;21.40;56.90
49511;DHT22;35413;48.776;9.204;2022-11-03T06:49:57;21.40;56.90
49511;DHT22;35413;48.776;9.204;2022-11-03T06:52:31;21.40;56.80
49511;DHT22;35413;48.776;9.204;2022-11-03T06:54:59;21.40;56.90
49511;DHT22;35413;48.776;9.204;2022-11-03T06:57:26;21.40;56.90
49511;DHT22;35413;48.776;9.204;2022-11-03T06:59:53;21.40;56.90
49511;DHT22;35413;48.776;9.204;2022-11-03T07:02:58;21.40;56.90
49511;DHT22;35413;48.776;9.204;2022-11-03T07:05:27;21.40;56.80
49511;DHT22;35413;48.776;9.204;2022-11-03T07:07:59;21.40;56.80
49511;DHT22;35413;48.776;9.204;2022-11-03T07:10:28;21.40;56.80
49511;DHT22;35413;48.776;9.204;2022-11-03T07:12:54;21.40;56.80
49511;DHT22;35413;48.776;9.204;2022-11-03T07:15:30;21.30;56.80
49511;DHT22;35413;48.776;9.204;2022-11-03T07:17:58;21.40;56.70
49511;DHT22;35413;48.776;9.204;2022-11-03T07:20:26;21.40;56.80
49511;DHT22;35413;48.776;9.204;2022-11-03T07:22:53;21.40;56.70
49511;DHT22;35413;48.776;9.204;2022-11-03T07:25:21;21.40;56.70
49511;DHT22;35413;48.776;9.204;2022-11-03T07:27:51;21.40;56.70
49511;DHT22;35413;48.776;9.204;2022-11-03T07:30:23;21.30;56.70
49511;DHT22;35413;48.776;9.204;2022-11-03T07:32:51;21.40;56.80
49511;DHT22;35413;48.776;9.204;2022-11-03T07:37:47;21.40;56.80
49511;DHT22;35413;48.776;9.204;2022-11-03T07:40:20;21.50;57.00
49511;DHT22;35413;48.776;9.204;2022-11-03T07:42:46;21.50;57.10
49511;DHT22;35413;48.776;9.204;2022-11-03T07:50:59;21.40;57.30
49511;DHT22;35413;48.776;9.204;2022-11-03T07:53:35;21.40;57.30
49511;DHT22;35413;48.776;9.204;2022-11-03T07:56:12;21.50;57.50
49511;DHT22;35413;48.776;9.204;2022-11-03T07:58:41;21.50;57.60
49511;DHT22;35413;48.776;9.204;2022-11-03T08:01:37;21.40;57.60
49511;DHT22;35413;48.776;9.204;2022-11-03T08:04:09;21.40;57.60
49511;DHT22;35413;48.776;9.204;2022-11-03T08:06:36;21.40;57.70
49511;DHT22;35413;48.776;9.204;2022-11-03T08:09:02;21.50;57.70
49511;DHT22;35413;48.776;9.204;2022-11-03T08:11:28;21.40;57.60
49511;DHT22;35413;48.776;9.204;2022-11-03T08:13:54;21.50;57.80
49511;DHT22;35413;48.776;9.204;2022-11-03T08:16:19;21.40;57.70
49511;DHT22;35413;48.776;9.204;2022-11-03T08:18:45;21.50;57.90
49511;DHT22;35413;48.776;9.204;2022-11-03T08:21:11;21.40;57.80
49511;DHT22;35413;48.776;9.204;2022-11-03T08:23:37;21.40;57.80
49511;DHT22;35413;48.776;9.204;2022-11-03T08:26:03;21.40;57.90
49511;DHT22;35413;48.776;9.204;2022-11-03T08:28:30;21.40;57.90
49511;DHT22;35413;48.776;9.204;2022-11-03T08:30:56;21.50;57.90
49511;DHT22;35413;48.776;9.204;2022-11-03T08:33:26;21.50;58.00
49511;DHT22;35413;48.776;9.204;2022-11-03T08:35:53;21.40;57.90
49511;DHT22;35413;48.776;9.204;2022-11-03T08:38:18;21.40;57.90
49511;DHT22;35413;48.776;9.204;2022-11-03T08:40:44;21.40;57.90
49511;DHT22;35413;48.776;9.204;2022-11-03T08:43:10;21.50;58.00
49511;DHT22;35413;48.776;9.204;2022-11-03T08:45:35;21.40;58.00
49511;DHT22;35413;48.776;9.204;2022-11-03T08:48:01;21.50;58.00
49511;DHT22;35413;48.776;9.204;2022-11-03T08:50:27;21.50;58.00
49511;DHT22;35413;48.776;9.204;2022-11-03T08:52:53;21.50;58.00
49511;DHT22;35413;48.776;9.204;2022-11-03T08:55:21;21.50;57.90
49511;DHT22;35413;48.776;9.204;2022-11-03T08:57:46;21.50;58.00
49511;DHT22;35413;48.776;9.204;2022-11-03T09:00:12;21.50;57.90
49511;DHT22;35413;48.776;9.204;2022-11-03T09:02:39;21.50;58.00
49511;DHT22;35413;48.776;9.204;2022-11-03T09:05:04;21.50;58.00
49511;DHT22;35413;48.776;9.204;2022-11-03T09:07:32;21.50;57.90
49511;DHT22;35413;48.776;9.204;2022-11-03T09:09:57;21.50;57.80
49511;DHT22;35413;48.776;9.204;2022-11-03T09:12:23;21.50;57.90
49511;DHT22;35413;48.776;9.204;2022-11-03T09:14:48;21.60;57.90
49511;DHT22;35413;48.776;9.204;2022-11-03T09:17:14;21.50;57.80
49511;DHT22;35413;48.776;9.204;2022-11-03T09:19:40;21.50;57.80
49511;DHT22;35413;48.776;9.204;2022-11-03T09:22:05;21.60;57.80
49511;DHT22;35413;48.776;9.204;2022-11-03T09:24:31;21.60;57.80
49511;DHT22;35413;48.776;9.204;2022-11-03T09:26:56;21.60;57.80
49511;DHT22;35413;48.776;9.204;2022-11-03T09:29:22;21.60;57.80
49511;DHT22;35413;48.776;9.204;2022-11-03T09:31:47;21.60;57.80
49511;DHT22;35413;48.776;9.204;2022-11-03T09:34:13;21.60;57.80
49511;DHT22;35413;48.776;9.204;2022-11-03T09:36:39;21.60;57.80
49511;DHT22;35413;48.776;9.204;2022-11-03T09:39:04;21.70;57.80
49511;DHT22;35413;48.776;9.204;2022-11-03T09:41:31;21.70;57.80
49511;DHT22;35413;48.776;9.204;2022-11-03T09:43:57;21.60;57.70
49511;DHT22;35413;48.776;9.204;2022-11-03T09:46:24;21.60;57.60
49511;DHT22;35413;48.776;9.204;2022-11-03T09:48:50;21.60;57.70
49511;DHT22;35413;48.776;9.204;2022-11-03T09:51:20;21.60;57.70
49511;DHT22;35413;48.776;9.204;2022-11-03T09:53:46;21.60;57.70
49511;DHT22;35413;48.776;9.204;2022-11-03T09:56:12;21.60;57.70
49511;DHT22;35413;48.776;9.204;2022-11-03T09:58:39;21.60;57.60
49511;DHT22;35413;48.776;9.204;2022-11-03T10:01:05;21.70;57.70
49511;DHT22;35413;48.776;9.204;2022-11-03T10:03:30;21.70;57.60
49511;DHT22;35413;48.776;9.204;2022-11-03T10:05:57;21.70;57.60
49511;DHT22;35413;48.776;9.204;2022-11-03T10:08:25;21.70;57.60
49511;DHT22;35413;48.776;9.204;2022-11-03T10:10:52;21.70;57.60
49511;DHT22;35413;48.776;9.204;2022-11-03T10:13:28;21.70;57.60
49511;DHT22;35413;48.776;9.204;2022-11-03T10:15:55;21.70;57.60
49511;DHT22;35413;48.776;9.204;2022-11-03T10:18:21;21.70;57.60
49511;DHT22;35413;48.776;9.204;2022-11-03T10:20:46;21.70;57.60
49511;DHT22;35413;48.776;9.204;2022-11-03T10:23:12;21.70;57.50
49511;DHT22;35413;48.776;9.204;2022-11-03T10:25:39;21.70;57.50
49511;DHT22;35413;48.776;9.204;2022-11-03T10:28:25;21.60;57.60
49511;DHT22;35413;48.776;9.204;2022-11-03T10:31:01;21.60;57.70
49511;DHT22;35413;48.776;9.204;2022-11-03T10:33:37;21.60;57.70
49511;DHT22;35413;48.776;9.204;2022-11-03T10:36:04;21.60;57.80
49511;DHT22;35413;48.776;9.204;2022-11-03T10:38:31;21.60;57.80
49511;DHT22;35413;48.776;9.204;2022-11-03T10:44:16;21.60;57.80
49511;DHT22;35413;48.776;9.204;2022-11-03T10:46:58;21.60;57.70
49511;DHT22;35413;48.776;9.204;2022-11-03T10:49:27;21.60;57.80
49511;DHT22;35413;48.776;9.204;2022-11-03T10:51:56;21.60;57.80
49511;DHT22;35413;48.776;9.204;2022-11-03T10:54:23;21.60;57.70
49511;DHT22;35413;48.776;9.204;2022-11-03T10:56:50;21.60;57.70
49511;DHT22;35413;48.776;9.204;2022-11-03T10:59:30;21.60;57.80
49511;DHT22;35413;48.776;9.204;2022-11-03T11:01:57;21.60;57.80
49511;DHT22;35413;48.776;9.204;2022-11-03T11:04:23;21.60;57.80
49511;DHT22;35413;48.776;9.204;2022-11-03T11:06:49;21.60;57.90
49511;DHT22;35413;48.776;9.204;2022-11-03T11:09:23;21.60;58.00
49511;DHT22;35413;48.776;9.204;2022-11-03T11:12:20;21.60;57.90
49511;DHT22;35413;48.776;9.204;2022-11-03T11:14:57;21.60;57.90
49511;DHT22;35413;48.776;9.204;2022-11-03T11:17:40;21.60;57.80
49511;DHT22;35413;48.776;9.204;2022-11-03T11:20:27;21.60;57.90
49511;DHT22;35413;48.776;9.204;2022-11-03T11:22:53;21.60;57.90
49511;DHT22;35413;48.776;9.204;2022-11-03T11:25:18;21.60;57.90
49511;DHT22;35413;48.776;9.204;2022-11-03T11:37:48;21.60;58.00
49511;DHT22;35413;48.776;9.204;2022-11-03T11:48:31;21.60;57.40
49511;DHT22;35413;48.776;9.204;2022-11-03T11:50:58;21.60;58.00
49511;DHT22;35413;48.776;9.204;2022-11-03T11:53:24;21.60;57.80
49511;DHT22;35413;48.776;9.204;2022-11-03T11:55:54;21.60;57.80
49511;DHT22;35413;48.776;9.204;2022-11-03T11:58:46;21.60;58.10
49511;DHT22;35413;48.776;9.204;2022-11-03T12:03:50;21.70;58.10
49511;DHT22;35413;48.776;9.204;2022-11-03T12:06:16;21.60;58.10
49511;DHT22;35413;48.776;9.204;2022-11-03T12:08:42;21.60;58.10
49511;DHT22;35413;48.776;9.204;2022-11-03T12:11:10;21.60;58.20
49511;DHT22;35413;48.776;9.204;2022-11-03T12:13:56;21.60;58.10
49511;DHT22;35413;48.776;9.204;2022-11-03T12:16:29;21.60;58.10
49511;DHT22;35413;48.776;9.204;2022-11-03T12:18:55;21.60;58.20
49511;DHT22;35413;48.776;9.204;2022-11-03T12:21:44;21.60;58.20
49511;DHT22;35413;48.776;9.204;2022-11-03T12:24:34;21.60;58.10
49511;DHT22;35413;48.776;9.204;2022-11-03T12:27:02;21.60;58.10
49511;DHT22;35413;48.776;9.204;2022-11-03T12:29:28;21.60;58.10
49511;DHT22;35413;48.776;9.204;2022-11-03T12:31:54;21.60;58.10
49511;DHT22;35413;48.776;9.204;2022-11-03T12:34:20;21.60;58.10
49511;DHT22;35413;48.776;9.204;2022-11-03T12:36:45;21.60;58.20
49511;DHT22;35413;48.776;9.204;2022-11-03T12:39:11;21.60;58.10
49511;DHT22;35413;48.776;9.204;2022-11-03T12:41:37;21.70;58.20
49511;DHT22;35413;48.776;9.204;2022-11-03T12:44:03;21.60;58.20
49511;DHT22;35413;48.776;9.204;2022-11-03T12:46:28;21.60;58.20
49511;DHT22;35413;48.776;9.204;2022-11-03T12:48:54;21.70;58.30
49511;DHT22;35413;48.776;9.204;2022-11-03T12:51:23;21.60;58.20
49511;DHT22;35413;48.776;9.204;2022-11-03T12:53:50;21.60;58.30
49511;DHT22;35413;48.776;9.204;2022-11-03T12:56:17;21.60;58.30
49511;DHT22;35413;48.776;9.204;2022-11-03T12:58:43;21.70;58.40
49511;DHT22;35413;48.776;9.204;2022-11-03T13:01:09;21.60;58.40
49511;DHT22;35413;48.776;9.204;2022-11-03T13:03:35;21.60;58.30
49511;DHT22;35413;48.776;9.204;2022-11-03T13:06:03;21.60;58.40
49511;DHT22;35413;48.776;9.204;2022-11-03T13:08:30;21.60;58.30
49511;DHT22;35413;48.776;9.204;2022-11-03T13:10:56;21.60;58.30
49511;DHT22;35413;48.776;9.204;2022-11-03T13:13:22;21.60;58.30
49511;DHT22;35413;48.776;9.204;2022-11-03T13:15:47;21.60;58.40
49511;DHT22;35413;48.776;9.204;2022-11-03T13:18:13;21.60;58.40
49511;DHT22;35413;48.776;9.204;2022-11-03T13:20:38;21.60;58.40
49511;DHT22;35413;48.776;9.204;2022-11-03T13:23:05;21.60;58.40
49511;DHT22;35413;48.776;9.204;2022-11-03T13:25:30;21.60;58.40
49511;DHT22;35413;48.776;9.204;2022-11-03T13:27:56;21.60;58.40
49511;DHT22;35413;48.776;9.204;2022-11-03T13:30:23;21.60;58.30
49511;DHT22;35413;48.776;9.204;2022-11-03T13:32:49;21.60;58.30
49511;DHT22;35413;48.776;9.204;2022-11-03T13:35:15;21.60;58.30
49511;DHT22;35413;48.776;9.204;2022-11-03T13:37:41;21.60;58.30
49511;DHT22;35413;48.776;9.204;2022-11-03T13:40:08;21.60;58.30
49511;DHT22;35413;48.776;9.204;2022-11-03T13:42:34;21.60;58.30
49511;DHT22;35413;48.776;9.204;2022-11-03T13:45:00;21.60;58.20
49511;DHT22;35413;48.776;9.204;2022-11-03T13:47:25;21.70;58.20
49511;DHT22;35413;48.776;9.204;2022-11-03T13:49:51;21.60;58.10
49511;DHT22;35413;48.776;9.204;2022-11-03T13:52:20;21.70;58.20
49511;DHT22;35413;48.776;9.204;2022-11-03T13:54:45;21.70;58.70
49511;DHT22;35413;48.776;9.204;2022-11-03T13:57:11;21.70;58.10
49511;DHT22;35413;48.776;9.204;2022-11-03T13:59:37;21.70;58.10
49511;DHT22;35413;48.776;9.204;2022-11-03T14:02:03;21.70;58.10
49511;DHT22;35413;48.776;9.204;2022-11-03T14:04:30;21.70;58.10
49511;DHT22;35413;48.776;9.204;2022-11-03T14:06:55;21.60;58.00
49511;DHT22;35413;48.776;9.204;2022-11-03T14:09:21;21.70;58.10
49511;DHT22;35413;48.776;9.204;2022-11-03T14:11:47;21.70;58.00
49511;DHT22;35413;48.776;9.204;2022-11-03T14:14:31;21.70;58.10
49511;DHT22;35413;48.776;9.204;2022-11-03T14:16:56;21.70;58.00
49511;DHT22;35413;48.776;9.204;2022-11-03T14:19:22;21.70;58.00
49511;DHT22;35413;48.776;9.204;2022-11-03T14:21:48;21.70;58.00
49511;DHT22;35413;48.776;9.204;2022-11-03T14:24:14;21.70;58.00
49511;DHT22;35413;48.776;9.204;2022-11-03T14:26:40;21.70;57.90
49511;DHT22;35413;48.776;9.204;2022-11-03T14:29:06;21.70;58.00
49511;DHT22;35413;48.776;9.204;2022-11-03T14:31:31;21.70;57.90
49511;DHT22;35413;48.776;9.204;2022-11-03T14:33:57;21.70;57.80
49511;DHT22;35413;48.776;9.204;2022-11-03T14:36:22;21.70;57.90
49511;DHT22;35413;48.776;9.204;2022-11-03T14:38:48;21.70;57.90
49511;DHT22;35413;48.776;9.204;2022-11-03T14:41:14;21.70;58.00
49511;DHT22;35413;48.776;9.204;2022-11-03T14:43:58;21.70;58.70
49511;DHT22;35413;48.776;9.204;2022-11-03T14:46:23;21.70;58.00
49511;DHT22;35413;48.776;9.204;2022-11-03T14:48:49;21.70;57.90
49511;DHT22;35413;48.776;9.204;2022-11-03T14:51:14;21.70;57.90
49511;DHT22;35413;48.776;9.204;2022-11-03T14:53:40;21.70;57.80
49511;DHT22;35413;48.776;9.204;2022-11-03T14:56:05;21.70;57.80
49511;DHT22;35413;48.776;9.204;2022-11-03T14:58:31;21.70;58.10
49511;DHT22;35413;48.776;9.204;2022-11-03T15:00:57;21.70;57.70
49511;DHT22;35413;48.776;9.204;2022-11-03T15:03:22;21.70;57.70
49511;DHT22;35413;48.776;9.204;2022-11-03T15:05:48;21.70;57.70
49511;DHT22;35413;48.776;9.204;2022-11-03T15:08:16;21.70;57.80
49511;DHT22;35413;48.776;9.204;2022-11-03T15:10:42;21.70;57.80
49511;DHT22;35413;48.776;9.204;2022-11-03T15:13:09;21.70;57.70
49511;DHT22;35413;48.776;9.204;2022-11-03T15:15:34;21.70;57.70
49511;DHT22;35413;48.776;9.204;2022-11-03T15:18:03;21.70;57.70
49511;DHT22;35413;48.776;9.204;2022-11-03T15:20:29;21.70;57.70
49511;DHT22;35413;48.776;9.204;2022-11-03T15:22:55;21.70;57.70
49511;DHT22;35413;48.776;9.204;2022-11-03T15:25:21;21.70;57.70
49511;DHT22;35413;48.776;9.204;2022-11-03T15:27:46;21.70;57.70
49511;DHT22;35413;48.776;9.204;2022-11-03T15:30:12;21.70;57.70
49511;DHT22;35413;48.776;9.204;2022-11-03T15:32:39;21.70;57.70
49511;DHT22;35413;48.776;9.204;2022-11-03T15:35:05;21.70;57.70
49511;DHT22;35413;48.776;9.204;2022-11-03T15:37:30;21.70;58.30
49511;DHT22;35413;48.776;9.204;2022-11-03T15:39:56;21.70;57.60
49511;DHT22;35413;48.776;9.204;2022-11-03T15:42:22;21.70;57.60
49511;DHT22;35413;48.776;9.204;2022-11-03T15:44:47;21.70;57.70
49511;DHT22;35413;48.776;9.204;2022-11-03T15:47:13;21.70;57.60
49511;DHT22;35413;48.776;9.204;2022-11-03T15:49:38;21.70;57.60
49511;DHT22;35413;48.776;9.204;2022-11-03T15:52:04;21.70;57.60
49511;DHT22;35413;48.776;9.204;2022-11-03T15:54:30;21.70;57.60
49511;DHT22;35413;48.776;9.204;2022-11-03T15:56:55;21.70;57.60
49511;DHT22;35413;48.776;9.204;2022-11-03T15:59:21;21.70;57.60
49511;DHT22;35413;48.776;9.204;2022-11-03T16:01:46;21.70;57.60
49511;DHT22;35413;48.776;9.204;2022-11-03T16:04:12;21.70;57.50
49511;DHT22;35413;48.776;9.204;2022-11-03T16:06:40;21.70;57.50
49511;DHT22;35413;48.776;9.204;2022-11-03T16:09:06;21.70;57.60
49511;DHT22;35413;48.776;9.204;2022-11-03T16:11:31;21.70;57.60
49511;DHT22;35413;48.776;9.204;2022-11-03T16:13:57;21.70;57.60
49511;DHT22;35413;48.776;9.204;2022-11-03T16:16:24;21.70;57.50
49511;DHT22;35413;48.776;9.204;2022-11-03T16:18:49;21.70;57.50
49511;DHT22;35413;48.776;9.204;2022-11-03T16:21:15;21.70;57.50
49511;DHT22;35413;48.776;9.204;2022-11-03T16:23:41;21.70;57.50
49511;DHT22;35413;48.776;9.204;2022-11-03T16:26:06;21.70;57.60
49511;DHT22;35413;48.776;9.204;2022-11-03T16:28:33;21.70;57.50
49511;DHT22;35413;48.776;9.204;2022-11-03T16:30:59;21.70;57.60
49511;DHT22;35413;48.776;9.204;2022-11-03T16:33:25;21.70;57.50
49511;DHT22;35413;48.776;9.204;2022-11-03T16:35:50;21.70;57.50
49511;DHT22;35413;48.776;9.204;2022-11-03T16:38:16;21.60;57.40
49511;DHT22;35413;48.776;9.204;2022-11-03T16:40:42;21.60;57.50